Time;durP1;ratioP1;P1;durP2;ratioP2;P2;SDS_P1;SDS_P2;PMS_P1;PMS_P2;Temp;Humidity;BMP_temperature;BMP_pressure;BME280_temperature;BME280_humidity;BME280_pressure;Samples;Min_cycle;Max_cycle;Signal;HPM_P1;HPM_P2
2022/07/29 00:00:44;;;;;;;4.75;2.10;;;;;;;18.16;52.87;99006.25;5078593;28;20041;-77
2022/07/29 00:03:13;;;;;;;4.32;2.05;;;;;;;18.17;52.42;98984.34;5057942;28;20107;-78
2022/07/29 00:05:40;;;;;;;6.65;1.90;;;;;;;18.35;51.47;98988.91;5059733;28;20059;-78
2022/07/29 00:08:06;;;;;;;3.88;2.10;;;;;;;18.30;52.13;98991.72;5058673;28;20357;-78
2022/07/29 00:10:32;;;;;;;9.75;2.30;;;;;;;18.70;51.21;98982.13;5061806;28;20507;-78
2022/07/29 00:12:57;;;;;;;2.95;1.85;;;;;;;18.72;50.85;98977.22;5057026;28;20051;-78
2022/07/29 00:15:23;;;;;;;2.90;1.80;;;;;;;19.41;48.51;98985.13;5061785;28;20133;-77
2022/07/29 00:17:48;;;;;;;3.65;1.52;;;;;;;19.22;49.33;98980.88;5054400;28;20024;-78
2022/07/29 00:20:13;;;;;;;3.00;2.17;;;;;;;19.51;48.73;98972.44;5059608;28;20032;-77
2022/07/29 00:22:39;;;;;;;1.77;1.30;;;;;;;19.60;47.76;98989.56;5040201;28;20033;-77
2022/07/29 00:25:05;;;;;;;2.80;1.67;;;;;;;19.63;48.05;98970.03;5060918;28;20017;-77
2022/07/29 00:27:31;;;;;;;2.17;1.52;;;;;;;19.76;48.57;98975.41;5057964;28;20051;-78
2022/07/29 00:29:56;;;;;;;3.63;1.77;;;;;;;19.74;47.93;98966.81;5061267;28;20036;-78
2022/07/29 00:32:21;;;;;;;3.10;1.70;;;;;;;19.64;48.32;98964.28;5044866;28;20457;-78
2022/07/29 00:37:31;;;;;;;3.25;1.40;;;;;;;19.71;48.78;98972.00;5057745;28;20102;-78
2022/07/29 00:39:56;;;;;;;2.25;1.40;;;;;;;19.50;48.63;98957.31;5059613;28;20730;-78
2022/07/29 00:42:22;;;;;;;4.53;1.77;;;;;;;19.63;48.71;98961.91;5058015;28;20404;-78
2022/07/29 00:44:47;;;;;;;2.53;1.67;;;;;;;19.51;48.83;98972.44;5043861;28;20628;-78
2022/07/29 00:47:13;;;;;;;2.42;1.33;;;;;;;19.64;48.76;98967.00;5060605;28;20552;-78
2022/07/29 00:49:40;;;;;;;4.80;1.42;;;;;;;19.48;49.05;98940.56;5062872;28;20035;-78
2022/07/29 00:52:06;;;;;;;2.20;1.73;;;;;;;19.65;48.89;98960.50;5063065;28;20089;-78
2022/07/29 00:54:33;;;;;;;4.10;2.45;;;;;;;19.56;48.98;98953.38;5062160;28;20036;-78
2022/07/29 00:56:59;;;;;;;2.10;1.52;;;;;;;19.59;49.08;98959.00;5062037;28;20032;-78
2022/07/29 00:59:26;;;;;;;3.60;1.55;;;;;;;19.57;48.82;98946.88;5049304;28;20028;-78
2022/07/29 01:01:52;;;;;;;7.28;1.80;;;;;;;19.51;48.93;98953.50;5062901;28;20036;-78
2022/07/29 01:04:18;;;;;;;6.00;1.95;;;;;;;19.46;49.36;98951.72;5047863;28;20512;-78
2022/07/29 01:06:43;;;;;;;2.60;1.70;;;;;;;19.30;49.85;98958.50;5064951;28;20032;-78
2022/07/29 01:09:10;;;;;;;1.52;1.42;;;;;;;18.98;50.47;98939.69;5029088;28;20479;-78
2022/07/29 01:11:36;;;;;;;1.77;1.13;;;;;;;18.96;52.90;98937.28;5061335;28;20021;-78
2022/07/29 01:14:03;;;;;;;3.42;2.00;;;;;;;18.47;54.42;98942.53;5060378;28;20037;-78
2022/07/29 01:16:32;;;;;;;2.22;1.70;;;;;;;18.80;52.47;98935.16;5061365;28;20544;-78
2022/07/29 01:19:12;;;;;;;4.05;1.80;;;;;;;19.24;50.35;98949.69;5060026;28;20032;-78
2022/07/29 01:21:52;;;;;;;3.20;1.50;;;;;;;19.23;49.91;98939.97;5059423;28;20077;-78
2022/07/29 01:24:39;;;;;;;4.45;1.90;;;;;;;19.34;49.75;98933.28;5065901;28;20396;-78
2022/07/29 01:27:22;;;;;;;1.67;1.15;;;;;;;19.38;49.70;98923.44;5065153;28;20106;-78
2022/07/29 01:29:56;;;;;;;2.60;1.42;;;;;;;19.38;50.25;98928.06;5075244;28;20020;-78
2022/07/29 01:32:26;;;;;;;2.38;1.63;;;;;;;19.42;49.52;98937.97;5065796;28;20033;-78
2022/07/29 01:35:02;;;;;;;2.78;1.50;;;;;;;19.47;50.01;98931.66;5061786;28;20029;-78
2022/07/29 01:37:27;;;;;;;;;;;;;;;19.38;49.79;98926.16;5060014;28;20028;-78
2022/07/29 01:39:56;;;;;;;2.43;1.23;;;;;;;19.33;50.19;98931.63;5060178;28;19916;-78
2022/07/29 01:42:36;;;;;;;3.72;1.48;;;;;;;19.22;49.93;98916.72;5063850;28;20038;-78
2022/07/29 01:45:23;;;;;;;4.10;1.83;;;;;;;19.15;50.92;98923.66;5059568;28;20052;-78
2022/07/29 01:47:48;;;;;;;2.87;1.50;;;;;;;19.42;50.01;98926.34;5070553;28;20513;-78
2022/07/29 01:50:17;;;;;;;1.80;1.30;;;;;;;19.34;50.19;98898.09;5064025;28;20020;-78
2022/07/29 01:52:59;;;;;;;3.05;1.73;;;;;;;19.18;50.12;98904.88;5063356;28;20036;-78
2022/07/29 01:55:29;;;;;;;3.65;1.90;;;;;;;19.16;50.70;98912.50;5060822;28;20119;-78
2022/07/29 01:57:57;;;;;;;4.30;1.70;;;;;;;19.19;50.65;98895.69;5061126;28;20047;-78
2022/07/29 02:00:23;;;;;;;2.03;1.30;;;;;;;19.25;50.58;98897.16;5062603;28;20045;-78
2022/07/29 02:02:51;;;;;;;3.55;1.58;;;;;;;19.34;49.98;98898.09;5077936;28;20054;-78
2022/07/29 02:05:20;;;;;;;2.15;1.58;;;;;;;19.22;50.49;98903.19;5064967;28;20420;-78
2022/07/29 02:07:47;;;;;;;6.85;2.13;;;;;;;18.91;52.59;98909.53;5063218;28;20468;-78
2022/07/29 02:10:16;;;;;;;2.67;1.52;;;;;;;19.01;50.61;98893.88;5075637;28;20086;-78
2022/07/29 02:12:43;;;;;;;7.18;1.77;;;;;;;18.65;53.51;98899.19;5064112;28;20111;-77
2022/07/29 02:15:11;;;;;;;3.20;1.73;;;;;;;18.81;51.59;98899.69;5059390;28;20032;-77
2022/07/29 02:17:52;;;;;;;2.58;2.22;;;;;;;19.04;50.74;98906.81;5058838;28;20162;-78
2022/07/29 02:20:19;;;;;;;6.47;2.20;;;;;;;18.63;52.54;98895.22;5059852;28;20036;-78
2022/07/29 02:22:46;;;;;;;3.65;1.80;;;;;;;18.84;52.20;98898.31;5064029;28;20029;-78
2022/07/29 02:25:13;;;;;;;5.03;1.55;;;;;;;18.75;51.81;98876.56;5062133;28;20039;-78
2022/07/29 02:27:41;;;;;;;4.93;1.95;;;;;;;18.99;51.14;98890.69;5048009;28;20024;-78
2022/07/29 02:30:07;;;;;;;3.97;1.50;;;;;;;18.97;50.45;98876.66;5061654;28;20029;-78
2022/07/29 02:32:37;;;;;;;3.10;1.92;;;;;;;18.92;50.69;98876.75;5043998;28;20063;-77
2022/07/29 02:35:03;;;;;;;1.90;1.73;;;;;;;19.20;51.00;98896.47;5060713;28;20028;-77
2022/07/29 02:37:30;;;;;;;3.65;1.63;;;;;;;18.63;51.83;98881.69;5060748;28;20025;-77
2022/07/29 02:39:58;;;;;;;2.45;1.35;;;;;;;18.95;51.44;98886.19;5053512;28;20028;-78
2022/07/29 02:42:26;;;;;;;8.35;2.00;;;;;;;18.76;52.93;98880.09;5062480;28;20120;-78
2022/07/29 02:44:52;;;;;;;2.63;1.65;;;;;;;18.63;51.98;98893.28;5044174;28;20039;-78
2022/07/29 02:47:32;;;;;;;4.55;1.70;;;;;;;19.03;51.20;98890.88;5064071;28;20480;-78
2022/07/29 02:50:08;;;;;;;3.00;1.65;;;;;;;18.97;51.16;98876.66;5062435;28;20028;-78
2022/07/29 02:52:44;;;;;;;3.58;1.65;;;;;;;19.01;51.36;98890.38;5060234;28;20451;-78
2022/07/29 02:55:33;;;;;;;2.85;1.50;;;;;;;19.08;50.63;98888.88;5061059;28;20074;-78
2022/07/29 02:58:28;;;;;;;2.67;1.80;;;;;;;19.11;50.96;98884.78;5070164;28;20417;-78
2022/07/29 03:01:07;;;;;;;2.03;1.55;;;;;;;18.84;50.95;98860.44;5062340;28;20029;-78
2022/07/29 03:03:36;;;;;;;3.17;1.50;;;;;;;18.94;50.85;98865.63;5063209;28;20032;-78
2022/07/29 03:06:03;;;;;;;3.28;1.83;;;;;;;18.94;50.75;98863.72;5060391;28;20036;-77
2022/07/29 03:08:31;;;;;;;4.00;1.80;;;;;;;19.03;51.20;98877.34;5045164;28;20024;-78
2022/07/29 03:10:57;;;;;;;2.53;1.48;;;;;;;18.85;50.66;98862.84;5061960;28;20028;-77
2022/07/29 03:13:23;;;;;;;3.00;1.75;;;;;;;19.00;50.83;98870.63;5043849;28;20094;-77
2022/07/29 03:15:49;;;;;;;2.53;1.55;;;;;;;19.01;51.10;98866.84;5061032;28;20365;-77
2022/07/29 03:18:15;;;;;;;1.73;1.63;;;;;;;18.93;51.50;98880.28;5045480;28;20374;-77
2022/07/29 03:20:41;;;;;;;2.58;1.80;;;;;;;18.77;51.31;98844.63;5059661;28;20075;-78
2022/07/29 03:23:07;;;;;;;4.78;2.10;;;;;;;18.72;52.59;98858.22;5060480;28;20544;-78
2022/07/29 03:25:33;;;;;;;1.42;1.15;;;;;;;18.84;51.33;98861.25;5060847;28;20041;-77
2022/07/29 03:27:58;;;;;;;4.05;2.05;;;;;;;18.97;51.33;98865.84;5061132;28;20058;-78
2022/07/29 03:30:24;;;;;;;4.70;1.40;;;;;;;18.88;51.52;98856.03;5060573;28;20123;-77
2022/07/29 03:32:50;;;;;;;5.10;1.52;;;;;;;18.81;51.73;98861.84;5060541;28;20288;-78
2022/07/29 03:35:22;;;;;;;2.83;1.67;;;;;;;18.81;51.84;98856.44;5057640;28;20025;-77
2022/07/29 03:37:48;;;;;;;1.85;1.20;;;;;;;18.85;51.73;98856.66;5060577;28;20491;-78
2022/07/29 03:40:21;;;;;;;3.15;1.60;;;;;;;18.78;51.55;98856.25;5058910;28;20113;-77
2022/07/29 03:42:49;;;;;;;7.53;2.30;;;;;;;18.67;53.23;98856.44;5057387;28;20052;-78
2022/07/29 03:45:18;;;;;;;3.28;1.85;;;;;;;18.24;52.88;98855.06;5073256;28;20484;-78
2022/07/29 03:47:57;;;;;;;2.55;1.92;;;;;;;17.75;54.44;98855.66;5061512;28;20051;-78
2022/07/29 03:50:23;;;;;;;5.30;1.85;;;;;;;17.83;53.96;98849.56;5058359;28;20036;-78
2022/07/29 03:52:49;;;;;;;6.00;2.08;;;;;;;18.26;53.07;98865.59;5059623;28;20040;-78
2022/07/29 03:55:15;;;;;;;1.98;1.30;;;;;;;18.45;52.16;98850.13;5058983;28;20250;-78
2022/07/29 03:57:41;;;;;;;3.97;1.80;;;;;;;18.74;51.79;98861.44;5061506;28;20035;-78
2022/07/29 04:00:08;;;;;;;2.97;1.90;;;;;;;18.83;51.33;98867.75;5061670;28;20036;-77
2022/07/29 04:02:34;;;;;;;3.30;1.85;;;;;;;18.74;51.59;98868.78;5061255;28;20037;-78
2022/07/29 04:04:59;;;;;;;2.53;1.63;;;;;;;18.84;51.92;98872.06;5057186;28;20028;-78
2022/07/29 04:07:25;;;;;;;4.10;2.28;;;;;;;18.57;52.53;98866.66;5058363;28;20024;-78
2022/07/29 04:09:50;;;;;;;3.33;1.75;;;;;;;18.59;52.25;98875.25;5059093;28;20032;-78
2022/07/29 04:12:16;;;;;;;2.97;1.80;;;;;;;18.65;51.86;98858.63;5078594;28;20487;-79
2022/07/29 04:14:41;;;;;;;2.95;1.75;;;;;;;18.54;52.79;98853.75;5057801;28;20033;-77
2022/07/29 04:17:07;;;;;;;3.58;1.85;;;;;;;18.68;52.34;98862.66;5056650;28;20967;-78
2022/07/29 04:19:33;;;;;;;4.90;1.90;;;;;;;18.57;53.16;98861.25;5065293;28;20107;-77
2022/07/29 04:21:59;;;;;;;2.38;1.40;;;;;;;18.79;52.01;98868.66;5061338;28;20175;-77
2022/07/29 04:24:25;;;;;;;3.30;1.73;;;;;;;18.49;52.82;98861.94;5059147;28;20020;-77
2022/07/29 04:26:51;;;;;;;2.03;1.45;;;;;;;18.64;52.66;98853.53;5050842;28;20033;-78
2022/07/29 04:29:17;;;;;;;4.95;1.52;;;;;;;18.79;52.29;98866.75;5061970;28;20103;-77
2022/07/29 04:31:43;;;;;;;3.13;2.10;;;;;;;18.68;52.18;98858.03;5065356;28;20040;-77
2022/07/29 04:34:08;;;;;;;3.70;2.22;;;;;;;18.76;52.29;98872.78;5066125;28;20033;-78
2022/07/29 04:36:34;;;;;;;3.30;1.75;;;;;;;18.74;52.49;98877.66;5065962;28;20036;-78
2022/07/29 04:39:00;;;;;;;3.72;1.90;;;;;;;18.69;52.69;98881.28;5066359;28;20032;-78
2022/07/29 04:41:27;;;;;;;3.05;1.75;;;;;;;18.74;52.41;98866.84;5065595;28;20035;-77
2022/07/29 04:43:52;;;;;;;2.22;2.00;;;;;;;18.48;55.21;98868.44;5062433;28;21655;-78
2022/07/29 04:46:18;;;;;;;2.88;1.98;;;;;;;18.29;54.92;98864.97;5047315;28;20091;-78
2022/07/29 04:48:45;;;;;;;3.55;2.20;;;;;;;18.07;55.28;98859.44;5062347;28;20362;-78
2022/07/29 04:51:11;;;;;;;2.70;1.73;;;;;;;18.32;54.18;98877.91;5056650;28;20028;-78
2022/07/29 04:53:36;;;;;;;3.55;2.33;;;;;;;18.89;52.42;98887.41;5065163;28;20047;-78
2022/07/29 04:56:02;;;;;;;4.07;1.90;;;;;;;19.00;52.09;98891.50;5063209;28;20090;-78
2022/07/29 04:58:28;;;;;;;2.80;1.45;;;;;;;19.17;52.09;98897.91;5063999;28;20147;-78
2022/07/29 05:00:53;;;;;;;4.43;2.28;;;;;;;18.98;52.24;98888.28;5049813;28;20488;-78
2022/07/29 05:03:19;;;;;;;3.08;1.67;;;;;;;19.02;52.72;98895.50;5067926;28;20361;-78
2022/07/29 05:05:44;;;;;;;3.97;1.65;;;;;;;18.91;52.31;98898.72;5065523;28;20097;-78
2022/07/29 05:08:09;;;;;;;4.50;1.88;;;;;;;18.74;54.14;98883.06;5066053;28;20400;-78
2022/07/29 05:10:37;;;;;;;5.45;2.70;;;;;;;18.60;56.47;98866.88;5061344;28;20166;-78
2022/07/29 05:13:07;;;;;;;5.82;2.10;;;;;;;18.21;56.75;98873.78;5065796;28;20486;-78
2022/07/29 05:15:36;;;;;;;2.00;1.50;;;;;;;18.27;56.21;98883.41;5061186;28;20036;-77
2022/07/29 05:18:02;;;;;;;4.95;1.88;;;;;;;18.60;53.75;98882.28;5057362;28;20032;-78
2022/07/29 05:20:29;;;;;;;5.80;2.08;;;;;;;18.96;52.67;98879.69;5061836;28;20114;-77
2022/07/29 05:22:59;;;;;;;2.67;1.45;;;;;;;19.04;52.34;98876.25;5063770;28;20024;-77
2022/07/29 05:25:25;;;;;;;6.93;2.17;;;;;;;18.60;58.01;98883.09;5061074;28;20040;-77
2022/07/29 05:27:51;;;;;;;4.05;2.22;;;;;;;18.49;58.25;98880.88;5063408;28;20423;-78
2022/07/29 05:30:17;;;;;;;8.82;2.85;;;;;;;18.08;57.13;98869.16;5080128;28;20533;-78
2022/07/29 05:32:43;;;;;;;5.60;2.05;;;;;;;18.39;55.40;98872.94;5060789;28;20024;-78
2022/07/29 05:35:08;;;;;;;4.82;2.20;;;;;;;18.21;58.13;98887.28;5065678;28;20041;-77
2022/07/29 05:37:34;;;;;;;10.60;2.50;;;;;;;17.84;58.61;98874.69;5059051;28;20037;-77
2022/07/29 05:39:59;;;;;;;10.77;3.60;;;;;;;17.72;58.67;98879.72;5064530;28;20119;-77
2022/07/29 05:42:25;;;;;;;10.27;2.55;;;;;;;17.37;58.68;98866.72;5077470;28;20038;-77
2022/07/29 05:44:51;;;;;;;9.77;2.67;;;;;;;17.48;58.12;98877.09;5044829;28;20342;-77
2022/07/29 05:47:17;;;;;;;6.35;2.85;;;;;;;17.66;59.52;98875.50;5062885;28;20107;-77
2022/07/29 05:49:42;;;;;;;9.23;2.70;;;;;;;17.83;59.31;98870.38;5048888;28;20514;-77
2022/07/29 05:52:08;;;;;;;11.52;2.55;;;;;;;18.10;59.03;98869.66;5062084;28;20046;-78
2022/07/29 05:54:34;;;;;;;8.57;2.85;;;;;;;18.33;57.87;98872.19;5044203;28;20116;-77
2022/07/29 05:56:59;;;;;;;10.90;2.72;;;;;;;18.82;56.30;98863.47;5060948;28;20344;-78
2022/07/29 05:59:25;;;;;;;5.63;2.15;;;;;;;18.87;56.03;98859.84;5046515;28;20041;-78
2022/07/29 06:01:50;;;;;;;9.45;2.78;;;;;;;18.69;55.96;98870.47;5062424;28;20025;-78
2022/07/29 06:04:16;;;;;;;11.48;2.85;;;;;;;18.87;56.78;98887.66;5047312;28;20117;-77
2022/07/29 06:06:41;;;;;;;8.60;2.20;;;;;;;18.86;55.63;98891.50;5062480;28;20051;-77
2022/07/29 06:09:07;;;;;;;7.25;2.40;;;;;;;18.86;55.54;98888.78;5062931;28;21921;-77
2022/07/29 06:11:33;;;;;;;3.58;2.25;;;;;;;18.89;55.17;98863.06;5061707;28;20033;-77
2022/07/29 06:13:58;;;;;;;4.68;2.50;;;;;;;19.33;53.90;98877.50;5061110;28;20032;-77
2022/07/29 06:16:23;;;;;;;19.00;3.60;;;;;;;19.41;54.22;98882.25;5062164;28;20369;-78
2022/07/29 06:18:49;;;;;;;13.63;2.65;;;;;;;19.42;55.27;98883.81;5039761;28;20040;-78
2022/07/29 06:21:14;;;;;;;8.25;3.40;;;;;;;19.54;54.04;98888.72;5057667;28;20028;-77
2022/07/29 06:23:40;;;;;;;5.95;1.92;;;;;;;19.40;54.33;98880.63;5064361;28;20081;-78
2022/07/29 06:26:06;;;;;;;7.03;2.63;;;;;;;19.71;53.23;98872.59;5062419;28;20032;-77
2022/07/29 06:28:32;;;;;;;8.85;2.50;;;;;;;19.36;53.70;98884.25;5061139;28;20488;-78
2022/07/29 06:30:58;;;;;;;10.13;2.55;;;;;;;19.06;54.61;98882.16;5060889;28;20044;-77
2022/07/29 06:33:23;;;;;;;5.22;2.28;;;;;;;19.18;54.06;98885.94;5061959;28;20029;-78
2022/07/29 06:35:49;;;;;;;5.13;1.90;;;;;;;19.73;52.74;98870.38;5061555;28;20029;-78
2022/07/29 06:38:15;;;;;;;6.30;2.53;;;;;;;19.68;54.05;98867.78;5047419;28;20024;-78
2022/07/29 06:40:59;;;;;;;8.38;2.58;;;;;;;19.68;53.08;98880.56;5063069;28;20042;-78
2022/07/29 06:43:26;;;;;;;5.80;2.58;;;;;;;19.47;51.95;98880.22;5060616;28;20040;-77
2022/07/29 06:45:52;;;;;;;10.48;2.88;;;;;;;19.29;52.96;98887.34;5058611;28;20078;-77
2022/07/29 06:48:17;;;;;;;7.18;2.88;;;;;;;19.48;52.30;98889.13;5060298;28;20423;-77
2022/07/29 06:50:42;;;;;;;8.90;2.35;;;;;;;19.49;52.50;98878.00;5059951;28;20024;-78
2022/07/29 06:53:08;;;;;;;9.05;2.47;;;;;;;19.78;53.70;98877.59;5040818;28;20400;-78
2022/07/29 06:55:33;;;;;;;4.00;2.10;;;;;;;20.08;52.26;98871.41;5062391;28;20040;-78
2022/07/29 06:57:59;;;;;;;7.13;2.40;;;;;;;19.75;52.96;98878.19;5058510;28;20090;-78
2022/07/29 07:00:24;;;;;;;4.32;2.60;;;;;;;19.46;52.98;98877.81;5040569;28;20029;-79
2022/07/29 07:02:50;;;;;;;11.15;3.03;;;;;;;19.58;53.55;98886.19;5065201;28;20361;-78
2022/07/29 07:05:15;;;;;;;8.27;2.60;;;;;;;19.52;53.93;98882.81;5044639;28;20032;-78
2022/07/29 07:07:40;;;;;;;6.60;2.63;;;;;;;19.47;53.24;98876.69;5058012;28;20045;-78
2022/07/29 07:10:06;;;;;;;4.90;2.50;;;;;;;19.79;52.73;98887.34;5059387;28;20032;-78
2022/07/29 07:12:32;;;;;;;7.57;2.97;;;;;;;20.04;51.62;98886.69;5056895;28;20615;-78
2022/07/29 07:14:57;;;;;;;8.23;2.90;;;;;;;19.84;52.94;98879.06;5063909;28;20044;-78
2022/07/29 07:17:22;;;;;;;5.90;2.58;;;;;;;19.44;53.46;98887.03;5059678;28;20039;-78
2022/07/29 07:19:48;;;;;;;9.48;3.03;;;;;;;19.34;53.00;98895.38;5051385;28;20032;-77
2022/07/29 07:22:13;;;;;;;8.68;2.53;;;;;;;19.54;53.55;98886.00;5055933;28;20518;-78
2022/07/29 07:24:38;;;;;;;10.60;2.88;;;;;;;19.38;53.27;98893.66;5047368;28;20089;-78
2022/07/29 07:27:04;;;;;;;8.80;2.60;;;;;;;19.68;53.35;98875.91;5041044;28;20079;-78
2022/07/29 07:29:29;;;;;;;7.70;2.38;;;;;;;20.21;53.08;98900.38;5043469;28;20040;-78
2022/07/29 07:31:55;;;;;;;4.05;2.20;;;;;;;20.51;52.54;98888.75;5060660;28;20078;-78
2022/07/29 07:34:20;;;;;;;8.32;3.25;;;;;;;20.09;52.51;98900.13;5056733;28;20120;-78
2022/07/29 07:36:46;;;;;;;7.93;2.97;;;;;;;20.10;52.28;98872.72;5040916;28;20037;-78
2022/07/29 07:39:11;;;;;;;9.93;3.40;;;;;;;20.36;52.77;98889.16;5030922;28;20021;-78
2022/07/29 07:41:37;;;;;;;8.90;3.03;;;;;;;20.53;52.25;98877.59;5057772;28;20062;-78
2022/07/29 07:44:02;;;;;;;5.28;2.50;;;;;;;20.93;51.69;98881.88;5058512;28;20036;-78
2022/07/29 07:46:27;;;;;;;6.47;3.00;;;;;;;21.00;50.23;98892.28;5065506;28;20041;-78
2022/07/29 07:48:53;;;;;;;11.25;2.78;;;;;;;20.89;51.38;98868.16;5057408;28;20520;-78
2022/07/29 07:51:18;;;;;;;7.25;2.80;;;;;;;20.70;50.69;98891.25;5046239;28;20040;-78
2022/07/29 07:53:44;;;;;;;5.53;2.85;;;;;;;20.79;51.85;98895.56;5040051;28;20029;-78
2022/07/29 07:56:10;;;;;;;6.05;2.47;;;;;;;20.54;51.54;98882.72;5040401;28;20483;-78
2022/07/29 07:58:36;;;;;;;3.45;1.90;;;;;;;20.90;50.89;98888.75;5059131;28;20029;-78
2022/07/29 08:01:01;;;;;;;4.75;2.53;;;;;;;21.07;50.61;98912.47;5057501;28;20438;-78
2022/07/29 08:03:27;;;;;;;5.50;2.40;;;;;;;21.56;49.17;98908.53;5057405;28;20517;-78
2022/07/29 08:05:54;;;;;;;5.53;2.22;;;;;;;21.55;50.30;98901.53;5059571;28;20036;-78
2022/07/29 08:08:20;;;;;;;6.75;2.58;;;;;;;21.42;50.19;98918.78;5049591;28;20032;-78
2022/07/29 08:10:58;;;;;;;2.75;1.77;;;;;;;21.65;49.35;98906.63;5059991;28;20473;-78
2022/07/29 08:13:27;;;;;;;6.18;2.58;;;;;;;21.88;49.00;98915.47;5044616;28;20029;-78
2022/07/29 08:15:59;;;;;;;2.60;1.92;;;;;;;22.13;48.08;98912.72;5039629;28;20031;-78
2022/07/29 08:18:26;;;;;;;7.10;2.08;;;;;;;21.80;50.53;98898.00;5051721;28;20059;-78
2022/07/29 08:20:52;;;;;;;4.88;2.25;;;;;;;21.92;48.18;98900.94;5060449;28;20054;-78
2022/07/29 08:23:18;;;;;;;12.50;2.80;;;;;;;21.70;49.87;98898.34;5056324;28;20582;-78
2022/07/29 08:25:44;;;;;;;9.40;3.03;;;;;;;21.93;49.18;98909.88;5061886;28;20040;-78
2022/07/29 08:28:10;;;;;;;9.00;2.08;;;;;;;21.88;50.22;98904.59;5061344;28;20361;-77
2022/07/29 08:30:35;;;;;;;7.50;2.40;;;;;;;22.17;48.94;98908.25;5050741;28;20028;-78
2022/07/29 08:33:01;;;;;;;5.63;2.20;;;;;;;22.08;48.88;98903.94;5062517;28;20086;-78
2022/07/29 08:35:27;;;;;;;5.45;2.25;;;;;;;22.49;47.82;98893.28;5064729;28;20028;-78
2022/07/29 08:37:53;;;;;;;2.55;1.80;;;;;;;22.61;47.70;98896.16;5060475;28;20488;-78
2022/07/29 08:40:20;;;;;;;5.97;2.38;;;;;;;22.66;48.97;98895.19;5062764;28;20032;-78
2022/07/29 08:42:46;;;;;;;7.25;2.38;;;;;;;22.75;47.13;98898.66;5057413;28;21179;-78
2022/07/29 08:45:12;;;;;;;6.15;2.45;;;;;;;22.65;48.29;98897.09;5064678;28;20031;-78
2022/07/29 08:47:42;;;;;;;6.85;2.63;;;;;;;22.35;47.28;98893.50;5058722;28;20060;-78
2022/07/29 08:50:09;;;;;;;7.75;2.97;;;;;;;22.12;48.43;98899.47;5062685;28;20028;-79
2022/07/29 08:52:40;;;;;;;3.75;2.17;;;;;;;22.56;47.62;98871.84;5062313;28;20035;-78
2022/07/29 08:55:08;;;;;;;6.57;2.20;;;;;;;22.68;47.33;98868.44;5055881;28;20472;-78
2022/07/29 08:57:34;;;;;;;7.18;2.58;;;;;;;21.95;48.55;98883.19;5063280;28;20028;-78
2022/07/29 09:00:02;;;;;;;8.23;2.45;;;;;;;21.73;49.04;98870.53;5071396;28;20128;-78
2022/07/29 09:02:32;;;;;;;3.83;2.15;;;;;;;22.17;48.44;98870.16;5065630;28;20059;-78
2022/07/29 09:05:01;;;;;;;7.20;2.95;;;;;;;21.39;49.19;98856.94;5054529;28;20032;-78
2022/07/29 09:07:26;;;;;;;3.55;2.05;;;;;;;21.65;49.92;98860.47;5052138;28;20041;-78
2022/07/29 09:09:52;;;;;;;10.85;2.65;;;;;;;21.40;50.37;98855.84;5068074;28;20044;-78
2022/07/29 09:12:18;;;;;;;11.30;2.78;;;;;;;21.49;50.16;98862.84;5060535;28;20417;-78
2022/07/29 09:14:43;;;;;;;8.23;2.45;;;;;;;21.62;49.84;98847.53;5062069;28;20144;-78
2022/07/29 09:17:09;;;;;;;8.40;2.78;;;;;;;21.35;50.48;98854.06;5048175;28;20032;-78
2022/07/29 09:19:36;;;;;;;6.32;2.78;;;;;;;20.73;51.53;98858.84;5051404;28;20024;-78
2022/07/29 09:22:04;;;;;;;4.13;2.90;;;;;;;21.00;51.11;98846.94;5064985;28;20032;-78
2022/07/29 09:24:39;;;;;;;8.98;2.90;;;;;;;21.57;50.01;98866.69;5064759;28;20032;-78
2022/07/29 09:27:09;;;;;;;6.15;2.40;;;;;;;22.09;48.63;98851.16;5062778;28;20025;-78
2022/07/29 09:29:36;;;;;;;3.00;1.98;;;;;;;22.03;49.13;98858.69;5066839;28;20465;-78
2022/07/29 09:32:08;;;;;;;3.50;1.98;;;;;;;21.95;49.73;98859.50;5060013;28;20036;-78
2022/07/29 09:34:33;;;;;;;5.32;2.83;;;;;;;21.90;49.17;98856.16;5060610;28;20097;-78
2022/07/29 09:36:59;;;;;;;6.80;2.95;;;;;;;21.48;53.41;98863.16;5058804;28;20044;-79
2022/07/29 09:39:45;;;;;;;8.23;2.70;;;;;;;20.64;52.56;98843.66;5063736;28;20081;-78
2022/07/29 09:42:11;;;;;;;6.93;2.78;;;;;;;20.50;53.35;98856.53;5054398;28;20036;-78
2022/07/29 09:44:42;;;;;;;9.20;2.95;;;;;;;20.55;52.85;98856.41;5061126;28;21481;-78
2022/07/29 09:47:08;;;;;;;3.10;2.30;;;;;;;20.43;51.82;98840.72;5071923;28;20132;-78
2022/07/29 09:49:35;;;;;;;7.93;2.55;;;;;;;20.30;52.28;98841.59;5043736;28;20383;-77
2022/07/29 09:52:07;;;;;;;5.93;2.83;;;;;;;20.48;52.08;98856.84;5055720;28;20038;-78
2022/07/29 09:54:36;;;;;;;4.15;3.08;;;;;;;20.40;55.88;98863.00;5054358;28;20052;-77
2022/07/29 09:57:04;;;;;;;6.00;2.72;;;;;;;20.17;56.41;98824.28;5053931;28;20067;-77
2022/07/29 09:59:29;;;;;;;9.40;3.03;;;;;;;20.21;53.94;98846.19;5052495;28;20660;-78
2022/07/29 10:01:56;;;;;;;5.20;3.40;;;;;;;20.18;54.34;98838.66;5075010;28;20025;-77
2022/07/29 10:04:21;;;;;;;7.85;3.45;;;;;;;20.29;53.28;98853.53;5058338;28;20028;-78
2022/07/29 10:07:01;;;;;;;10.10;3.13;;;;;;;20.29;53.23;98850.06;5042210;28;20036;-77
2022/07/29 10:09:27;;;;;;;8.52;2.80;;;;;;;20.26;52.99;98837.13;5053985;28;20023;-78
2022/07/29 10:12:04;;;;;;;4.45;2.75;;;;;;;20.22;53.36;98842.38;5042114;28;20131;-77
2022/07/29 10:14:32;;;;;;;7.10;2.25;;;;;;;20.52;52.75;98844.25;5058495;28;20459;-77
2022/07/29 10:17:00;;;;;;;4.18;2.83;;;;;;;20.46;53.37;98845.50;5070959;28;20047;-77
2022/07/29 10:19:25;;;;;;;5.32;3.10;;;;;;;20.57;52.71;98821.63;5055699;28;20389;-77
2022/07/29 10:21:51;;;;;;;7.78;3.50;;;;;;;20.76;52.14;98843.84;5058713;28;20069;-77
2022/07/29 10:24:17;;;;;;;8.45;2.78;;;;;;;20.74;52.18;98846.09;5055457;28;20051;-77
2022/07/29 10:26:45;;;;;;;7.82;3.38;;;;;;;20.81;51.38;98828.25;5063346;28;20032;-77
2022/07/29 10:29:11;;;;;;;5.72;2.65;;;;;;;21.32;51.07;98832.16;5062908;28;20105;-78
2022/07/29 10:31:48;;;;;;;8.25;2.72;;;;;;;21.83;49.50;98823.22;5059855;28;20082;-77
2022/07/29 10:34:34;;;;;;;10.35;3.38;;;;;;;22.24;49.79;98832.41;5050855;28;20024;-77
2022/07/29 10:37:39;;;;;;;5.40;2.75;;;;;;;22.51;48.96;98824.94;5053951;28;20614;-77
2022/07/29 10:43:28;;;;;;;13.48;3.40;;;;;;;22.97;48.05;98833.06;5058385;28;20145;-78
2022/07/29 10:45:59;;;;;;;9.60;3.33;;;;;;;23.09;48.84;98831.22;5061643;28;20024;-78
2022/07/29 10:48:25;;;;;;;7.05;3.58;;;;;;;23.00;48.28;98816.06;5056493;28;20392;-78
2022/07/29 10:50:55;;;;;;;9.10;4.53;;;;;;;23.20;46.28;98820.72;5050305;28;20024;-78
2022/07/29 10:53:24;;;;;;;7.65;4.40;;;;;;;22.94;48.56;98826.34;5058094;28;20021;-77
2022/07/29 10:55:52;;;;;;;7.22;3.78;;;;;;;22.98;47.61;98807.41;5060885;28;20032;-78
2022/07/29 10:58:20;;;;;;;9.45;3.55;;;;;;;23.29;47.63;98815.22;5043089;28;20090;-78
2022/07/29 11:00:53;;;;;;;17.05;3.95;;;;;;;23.68;46.65;98829.19;5060061;28;20029;-78
2022/07/29 11:03:47;;;;;;;7.57;4.00;;;;;;;23.31;47.54;98819.19;5058199;28;20077;-78
2022/07/29 11:06:13;;;;;;;17.35;4.10;;;;;;;23.55;47.25;98816.63;5073592;28;21958;-78
2022/07/29 11:08:39;;;;;;;18.20;4.60;;;;;;;24.01;47.07;98821.00;5054808;28;20024;-78
2022/07/29 11:11:20;;;;;;;7.88;3.47;;;;;;;23.92;46.82;98814.06;5058694;28;20077;-78
2022/07/29 11:13:47;;;;;;;14.05;3.85;;;;;;;24.49;46.55;98810.22;5069450;28;20037;-78
2022/07/29 11:16:14;;;;;;;7.47;3.40;;;;;;;25.28;44.31;98801.41;5077273;28;20499;-78
2022/07/29 11:19:11;;;;;;;12.18;3.95;;;;;;;25.72;43.57;98812.41;5041086;28;20037;-79
2022/07/29 11:21:39;;;;;;;4.90;3.25;;;;;;;25.20;45.16;98801.53;5061556;28;20024;-78
2022/07/29 11:24:20;;;;;;;7.90;3.40;;;;;;;25.81;44.54;98813.88;5055551;28;20157;-78
2022/07/29 11:27:06;;;;;;;6.43;3.40;;;;;;;26.43;42.70;98802.22;5058678;28;20043;-78
2022/07/29 11:29:32;;;;;;;5.88;3.42;;;;;;;26.30;42.30;98803.44;5055988;28;21588;-79
2022/07/29 11:32:10;;;;;;;6.18;3.63;;;;;;;25.41;43.50;98806.81;5061945;28;20074;-79
2022/07/29 11:34:40;;;;;;;8.15;3.80;;;;;;;25.75;44.04;98790.63;5060378;28;20024;-79
2022/07/29 11:37:09;;;;;;;6.55;3.90;;;;;;;26.32;43.56;98806.63;5052750;28;20119;-79
2022/07/29 11:39:54;;;;;;;11.02;4.95;;;;;;;25.98;43.15;98801.81;5054914;28;20024;-78
2022/07/29 11:42:19;;;;;;;7.00;3.70;;;;;;;25.88;43.58;98807.81;5065370;28;20021;-78
2022/07/29 11:45:09;;;;;;;10.63;4.18;;;;;;;25.58;44.02;98795.59;5059607;28;20024;-78